<?xml version="1.0" encoding="UTF-8" standalone="no" ?>
<gpx xmlns="http://www.topografix.com/GPX/1/1" xmlns:xsi="http://www.w3.org/2001/XMLSchema-instance" xsi:schemaLocation="http://www.topografix.com/GPX/1/1 http://www.topografix.com/GPX/1/1/gpx.xsd" version="1.1" creator="VisuGPX - https://www.visugpx.com">
  <metadata>
    <name>Randonnée du 11/06/2019 à 16:52</name>
  </metadata>
  <trk>
    <name><![CDATA[Randonnée du 11/06/2019 à 16:52]]></name>
    <trkseg>
      <trkpt lat="44.82083" lon="1.75661">
        <ele>337</ele>
        <time>2019-06-11T16:52:52+02:00</time>
      </trkpt>
      <trkpt lat="44.82052" lon="1.75673">
        <ele>337</ele>
        <time>2019-06-11T16:52:55+02:00</time>
      </trkpt>
      <trkpt lat="44.82042" lon="1.75705">
        <ele>340</ele>
        <time>2019-06-11T16:54:16+02:00</time>
      </trkpt>
      <trkpt lat="44.82039" lon="1.75738">
        <ele>340</ele>
        <time>2019-06-11T16:54:51+02:00</time>
      </trkpt>
      <trkpt lat="44.82025" lon="1.75764">
        <ele>338</ele>
        <time>2019-06-11T16:55:29+02:00</time>
      </trkpt>
      <trkpt lat="44.82015" lon="1.75792">
        <ele>336</ele>
        <time>2019-06-11T16:56:33+02:00</time>
      </trkpt>
      <trkpt lat="44.82035" lon="1.75811">
        <ele>336</ele>
        <time>2019-06-11T16:57:36+02:00</time>
      </trkpt>
      <trkpt lat="44.82054" lon="1.75831">
        <ele>337</ele>
        <time>2019-06-11T16:57:52+02:00</time>
      </trkpt>
      <trkpt lat="44.82076" lon="1.75836">
        <ele>338</ele>
        <time>2019-06-11T16:58:15+02:00</time>
      </trkpt>
      <trkpt lat="44.82097" lon="1.75847">
        <ele>340</ele>
        <time>2019-06-11T16:58:55+02:00</time>
      </trkpt>
      <trkpt lat="44.82114" lon="1.75869">
        <ele>340</ele>
        <time>2019-06-11T16:59:23+02:00</time>
      </trkpt>
      <trkpt lat="44.8213" lon="1.75893">
        <ele>340</ele>
        <time>2019-06-11T16:59:49+02:00</time>
      </trkpt>
      <trkpt lat="44.8215" lon="1.75909">
        <ele>341</ele>
        <time>2019-06-11T17:00:10+02:00</time>
      </trkpt>
      <trkpt lat="44.82169" lon="1.75927">
        <ele>341</ele>
        <time>2019-06-11T17:00:34+02:00</time>
      </trkpt>
      <trkpt lat="44.82189" lon="1.75942">
        <ele>342</ele>
        <time>2019-06-11T17:01:01+02:00</time>
      </trkpt>
      <trkpt lat="44.82211" lon="1.75948">
        <ele>343</ele>
        <time>2019-06-11T17:01:22+02:00</time>
      </trkpt>
      <trkpt lat="44.82235" lon="1.75952">
        <ele>344</ele>
        <time>2019-06-11T17:01:54+02:00</time>
      </trkpt>
      <trkpt lat="44.82257" lon="1.7596">
        <ele>346</ele>
        <time>2019-06-11T17:02:20+02:00</time>
      </trkpt>
      <trkpt lat="44.82274" lon="1.75982">
        <ele>347</ele>
        <time>2019-06-11T17:02:38+02:00</time>
      </trkpt>
      <trkpt lat="44.82288" lon="1.76008">
        <ele>347</ele>
        <time>2019-06-11T17:02:56+02:00</time>
      </trkpt>
      <trkpt lat="44.82304" lon="1.76031">
        <ele>347</ele>
        <time>2019-06-11T17:03:15+02:00</time>
      </trkpt>
      <trkpt lat="44.8232" lon="1.76053">
        <ele>347</ele>
        <time>2019-06-11T17:03:33+02:00</time>
      </trkpt>
      <trkpt lat="44.82336" lon="1.76075">
        <ele>346</ele>
        <time>2019-06-11T17:04:12+02:00</time>
      </trkpt>
      <trkpt lat="44.82353" lon="1.76097">
        <ele>345</ele>
        <time>2019-06-11T17:04:45+02:00</time>
      </trkpt>
      <trkpt lat="44.82371" lon="1.76119">
        <ele>344</ele>
        <time>2019-06-11T17:05:04+02:00</time>
      </trkpt>
      <trkpt lat="44.82382" lon="1.76148">
        <ele>345</ele>
        <time>2019-06-11T17:05:22+02:00</time>
      </trkpt>
      <trkpt lat="44.82381" lon="1.7618">
        <ele>345</ele>
        <time>2019-06-11T17:06:10+02:00</time>
      </trkpt>
      <trkpt lat="44.82393" lon="1.76208">
        <ele>347</ele>
        <time>2019-06-11T17:06:37+02:00</time>
      </trkpt>
      <trkpt lat="44.8241" lon="1.76233">
        <ele>349</ele>
        <time>2019-06-11T17:07:00+02:00</time>
      </trkpt>
      <trkpt lat="44.82422" lon="1.7626">
        <ele>350</ele>
        <time>2019-06-11T17:07:21+02:00</time>
      </trkpt>
      <trkpt lat="44.82435" lon="1.76288">
        <ele>351</ele>
        <time>2019-06-11T17:07:42+02:00</time>
      </trkpt>
      <trkpt lat="44.82448" lon="1.76313">
        <ele>351</ele>
        <time>2019-06-11T17:07:59+02:00</time>
      </trkpt>
      <trkpt lat="44.82458" lon="1.76343">
        <ele>352</ele>
        <time>2019-06-11T17:08:20+02:00</time>
      </trkpt>
      <trkpt lat="44.8247" lon="1.76371">
        <ele>351</ele>
        <time>2019-06-11T17:08:47+02:00</time>
      </trkpt>
      <trkpt lat="44.8248" lon="1.76402">
        <ele>351</ele>
        <time>2019-06-11T17:09:11+02:00</time>
      </trkpt>
      <trkpt lat="44.82481" lon="1.76435">
        <ele>353</ele>
        <time>2019-06-11T17:09:31+02:00</time>
      </trkpt>
      <trkpt lat="44.82476" lon="1.76467">
        <ele>354</ele>
        <time>2019-06-11T17:09:51+02:00</time>
      </trkpt>
      <trkpt lat="44.82471" lon="1.76498">
        <ele>356</ele>
        <time>2019-06-11T17:10:43+02:00</time>
      </trkpt>
      <trkpt lat="44.8248" lon="1.7653">
        <ele>355</ele>
        <time>2019-06-11T17:11:05+02:00</time>
      </trkpt>
      <trkpt lat="44.82486" lon="1.76561">
        <ele>354</ele>
        <time>2019-06-11T17:11:56+02:00</time>
      </trkpt>
      <trkpt lat="44.82486" lon="1.76593">
        <ele>355</ele>
        <time>2019-06-11T17:12:44+02:00</time>
      </trkpt>
      <trkpt lat="44.82484" lon="1.76627">
        <ele>355</ele>
        <time>2019-06-11T17:13:06+02:00</time>
      </trkpt>
      <trkpt lat="44.82479" lon="1.76658">
        <ele>355</ele>
        <time>2019-06-11T17:13:35+02:00</time>
      </trkpt>
      <trkpt lat="44.82475" lon="1.76689">
        <ele>356</ele>
        <time>2019-06-11T17:14:14+02:00</time>
      </trkpt>
      <trkpt lat="44.82469" lon="1.7672">
        <ele>356</ele>
        <time>2019-06-11T17:15:35+02:00</time>
      </trkpt>
      <trkpt lat="44.82462" lon="1.76751">
        <ele>357</ele>
        <time>2019-06-11T17:15:55+02:00</time>
      </trkpt>
      <trkpt lat="44.82455" lon="1.76781">
        <ele>357</ele>
        <time>2019-06-11T17:16:27+02:00</time>
      </trkpt>
      <trkpt lat="44.82449" lon="1.76812">
        <ele>358</ele>
        <time>2019-06-11T17:16:53+02:00</time>
      </trkpt>
      <trkpt lat="44.82441" lon="1.76843">
        <ele>359</ele>
        <time>2019-06-11T17:17:23+02:00</time>
      </trkpt>
      <trkpt lat="44.82437" lon="1.76875">
        <ele>359</ele>
        <time>2019-06-11T17:17:44+02:00</time>
      </trkpt>
      <trkpt lat="44.82434" lon="1.76906">
        <ele>359</ele>
        <time>2019-06-11T17:18:18+02:00</time>
      </trkpt>
      <trkpt lat="44.8243" lon="1.76939">
        <ele>359</ele>
        <time>2019-06-11T17:18:48+02:00</time>
      </trkpt>
      <trkpt lat="44.82426" lon="1.76971">
        <ele>359</ele>
        <time>2019-06-11T17:19:09+02:00</time>
      </trkpt>
      <trkpt lat="44.82424" lon="1.77004">
        <ele>359</ele>
        <time>2019-06-11T17:19:35+02:00</time>
      </trkpt>
      <trkpt lat="44.8242" lon="1.77036">
        <ele>359</ele>
        <time>2019-06-11T17:20:00+02:00</time>
      </trkpt>
      <trkpt lat="44.82416" lon="1.77067">
        <ele>360</ele>
        <time>2019-06-11T17:20:29+02:00</time>
      </trkpt>
      <trkpt lat="44.82421" lon="1.771">
        <ele>361</ele>
        <time>2019-06-11T17:20:57+02:00</time>
      </trkpt>
      <trkpt lat="44.82423" lon="1.77132">
        <ele>362</ele>
        <time>2019-06-11T17:21:24+02:00</time>
      </trkpt>
      <trkpt lat="44.82427" lon="1.77164">
        <ele>362</ele>
        <time>2019-06-11T17:21:43+02:00</time>
      </trkpt>
      <trkpt lat="44.82431" lon="1.77196">
        <ele>363</ele>
        <time>2019-06-11T17:22:07+02:00</time>
      </trkpt>
      <trkpt lat="44.82435" lon="1.77227">
        <ele>363</ele>
        <time>2019-06-11T17:22:37+02:00</time>
      </trkpt>
      <trkpt lat="44.82452" lon="1.77248">
        <ele>363</ele>
        <time>2019-06-11T17:23:27+02:00</time>
      </trkpt>
      <trkpt lat="44.82475" lon="1.77247">
        <ele>362</ele>
        <time>2019-06-11T17:23:50+02:00</time>
      </trkpt>
      <trkpt lat="44.82498" lon="1.77249">
        <ele>361</ele>
        <time>2019-06-11T17:24:11+02:00</time>
      </trkpt>
      <trkpt lat="44.8252" lon="1.77237">
        <ele>359</ele>
        <time>2019-06-11T17:24:41+02:00</time>
      </trkpt>
      <trkpt lat="44.82541" lon="1.77225">
        <ele>358</ele>
        <time>2019-06-11T17:25:07+02:00</time>
      </trkpt>
      <trkpt lat="44.82557" lon="1.77204">
        <ele>357</ele>
        <time>2019-06-11T17:25:26+02:00</time>
      </trkpt>
      <trkpt lat="44.82567" lon="1.77175">
        <ele>357</ele>
        <time>2019-06-11T17:25:46+02:00</time>
      </trkpt>
      <trkpt lat="44.82572" lon="1.77144">
        <ele>356</ele>
        <time>2019-06-11T17:26:07+02:00</time>
      </trkpt>
      <trkpt lat="44.82583" lon="1.77114">
        <ele>355</ele>
        <time>2019-06-11T17:26:26+02:00</time>
      </trkpt>
      <trkpt lat="44.82595" lon="1.77086">
        <ele>354</ele>
        <time>2019-06-11T17:26:43+02:00</time>
      </trkpt>
      <trkpt lat="44.82606" lon="1.77058">
        <ele>354</ele>
        <time>2019-06-11T17:27:02+02:00</time>
      </trkpt>
      <trkpt lat="44.82622" lon="1.77034">
        <ele>353</ele>
        <time>2019-06-11T17:27:22+02:00</time>
      </trkpt>
      <trkpt lat="44.82636" lon="1.77008">
        <ele>352</ele>
        <time>2019-06-11T17:27:41+02:00</time>
      </trkpt>
      <trkpt lat="44.82646" lon="1.76979">
        <ele>352</ele>
        <time>2019-06-11T17:27:59+02:00</time>
      </trkpt>
      <trkpt lat="44.82656" lon="1.76951">
        <ele>352</ele>
        <time>2019-06-11T17:28:20+02:00</time>
      </trkpt>
      <trkpt lat="44.82669" lon="1.76922">
        <ele>351</ele>
        <time>2019-06-11T17:28:40+02:00</time>
      </trkpt>
      <trkpt lat="44.82684" lon="1.76898">
        <ele>351</ele>
        <time>2019-06-11T17:28:58+02:00</time>
      </trkpt>
      <trkpt lat="44.82697" lon="1.76871">
        <ele>351</ele>
        <time>2019-06-11T17:29:17+02:00</time>
      </trkpt>
      <trkpt lat="44.82717" lon="1.76853">
        <ele>351</ele>
        <time>2019-06-11T17:29:46+02:00</time>
      </trkpt>
      <trkpt lat="44.82737" lon="1.76833">
        <ele>352</ele>
        <time>2019-06-11T17:30:13+02:00</time>
      </trkpt>
      <trkpt lat="44.82756" lon="1.76816">
        <ele>352</ele>
        <time>2019-06-11T17:31:16+02:00</time>
      </trkpt>
      <trkpt lat="44.82776" lon="1.76802">
        <ele>352</ele>
        <time>2019-06-11T17:31:54+02:00</time>
      </trkpt>
      <trkpt lat="44.82798" lon="1.76794">
        <ele>353</ele>
        <time>2019-06-11T17:32:32+02:00</time>
      </trkpt>
      <trkpt lat="44.82821" lon="1.76792">
        <ele>353</ele>
        <time>2019-06-11T17:32:54+02:00</time>
      </trkpt>
      <trkpt lat="44.82845" lon="1.76788">
        <ele>354</ele>
        <time>2019-06-11T17:33:23+02:00</time>
      </trkpt>
      <trkpt lat="44.82867" lon="1.76785">
        <ele>354</ele>
        <time>2019-06-11T17:33:51+02:00</time>
      </trkpt>
      <trkpt lat="44.82889" lon="1.76771">
        <ele>354</ele>
        <time>2019-06-11T17:34:12+02:00</time>
      </trkpt>
      <trkpt lat="44.82911" lon="1.76759">
        <ele>355</ele>
        <time>2019-06-11T17:34:32+02:00</time>
      </trkpt>
      <trkpt lat="44.82933" lon="1.76747">
        <ele>356</ele>
        <time>2019-06-11T17:34:51+02:00</time>
      </trkpt>
      <trkpt lat="44.82955" lon="1.76742">
        <ele>355</ele>
        <time>2019-06-11T17:35:08+02:00</time>
      </trkpt>
      <trkpt lat="44.82976" lon="1.7673">
        <ele>356</ele>
        <time>2019-06-11T17:35:32+02:00</time>
      </trkpt>
      <trkpt lat="44.82992" lon="1.76707">
        <ele>358</ele>
        <time>2019-06-11T17:36:00+02:00</time>
      </trkpt>
      <trkpt lat="44.83012" lon="1.7669">
        <ele>359</ele>
        <time>2019-06-11T17:36:21+02:00</time>
      </trkpt>
      <trkpt lat="44.83024" lon="1.76663">
        <ele>360</ele>
        <time>2019-06-11T17:36:54+02:00</time>
      </trkpt>
      <trkpt lat="44.83043" lon="1.76644">
        <ele>361</ele>
        <time>2019-06-11T17:37:11+02:00</time>
      </trkpt>
      <trkpt lat="44.83063" lon="1.76626">
        <ele>359</ele>
        <time>2019-06-11T17:37:28+02:00</time>
      </trkpt>
      <trkpt lat="44.83083" lon="1.76609">
        <ele>358</ele>
        <time>2019-06-11T17:37:50+02:00</time>
      </trkpt>
      <trkpt lat="44.83098" lon="1.76583">
        <ele>357</ele>
        <time>2019-06-11T17:38:11+02:00</time>
      </trkpt>
      <trkpt lat="44.83108" lon="1.76553">
        <ele>356</ele>
        <time>2019-06-11T17:38:34+02:00</time>
      </trkpt>
      <trkpt lat="44.83117" lon="1.76524">
        <ele>355</ele>
        <time>2019-06-11T17:38:56+02:00</time>
      </trkpt>
      <trkpt lat="44.83121" lon="1.76492">
        <ele>355</ele>
        <time>2019-06-11T17:39:24+02:00</time>
      </trkpt>
      <trkpt lat="44.83112" lon="1.76462">
        <ele>356</ele>
        <time>2019-06-11T17:39:52+02:00</time>
      </trkpt>
      <trkpt lat="44.83104" lon="1.76432">
        <ele>357</ele>
        <time>2019-06-11T17:40:24+02:00</time>
      </trkpt>
      <trkpt lat="44.83101" lon="1.764">
        <ele>357</ele>
        <time>2019-06-11T17:40:42+02:00</time>
      </trkpt>
      <trkpt lat="44.83092" lon="1.76371">
        <ele>358</ele>
        <time>2019-06-11T17:41:03+02:00</time>
      </trkpt>
      <trkpt lat="44.83085" lon="1.76341">
        <ele>358</ele>
        <time>2019-06-11T17:41:22+02:00</time>
      </trkpt>
      <trkpt lat="44.83076" lon="1.76311">
        <ele>358</ele>
        <time>2019-06-11T17:41:47+02:00</time>
      </trkpt>
      <trkpt lat="44.83062" lon="1.76285">
        <ele>359</ele>
        <time>2019-06-11T17:42:09+02:00</time>
      </trkpt>
      <trkpt lat="44.83052" lon="1.76254">
        <ele>358</ele>
        <time>2019-06-11T17:43:41+02:00</time>
      </trkpt>
      <trkpt lat="44.83039" lon="1.76227">
        <ele>359</ele>
        <time>2019-06-11T17:44:04+02:00</time>
      </trkpt>
      <trkpt lat="44.83028" lon="1.76197">
        <ele>357</ele>
        <time>2019-06-11T17:44:26+02:00</time>
      </trkpt>
      <trkpt lat="44.8301" lon="1.76177">
        <ele>359</ele>
        <time>2019-06-11T17:44:45+02:00</time>
      </trkpt>
      <trkpt lat="44.82989" lon="1.76162">
        <ele>360</ele>
        <time>2019-06-11T17:45:11+02:00</time>
      </trkpt>
      <trkpt lat="44.82972" lon="1.76141">
        <ele>361</ele>
        <time>2019-06-11T17:45:32+02:00</time>
      </trkpt>
      <trkpt lat="44.82957" lon="1.76115">
        <ele>362</ele>
        <time>2019-06-11T17:45:56+02:00</time>
      </trkpt>
      <trkpt lat="44.82975" lon="1.76095">
        <ele>358</ele>
        <time>2019-06-11T17:48:15+02:00</time>
      </trkpt>
      <trkpt lat="44.82995" lon="1.76079">
        <ele>357</ele>
        <time>2019-06-11T17:49:06+02:00</time>
      </trkpt>
      <trkpt lat="44.82976" lon="1.76058">
        <ele>357</ele>
        <time>2019-06-11T17:49:37+02:00</time>
      </trkpt>
      <trkpt lat="44.82964" lon="1.76028">
        <ele>357</ele>
        <time>2019-06-11T17:49:53+02:00</time>
      </trkpt>
      <trkpt lat="44.8295" lon="1.76002">
        <ele>357</ele>
        <time>2019-06-11T17:50:10+02:00</time>
      </trkpt>
      <trkpt lat="44.82938" lon="1.75975">
        <ele>356</ele>
        <time>2019-06-11T17:50:29+02:00</time>
      </trkpt>
      <trkpt lat="44.82926" lon="1.75945">
        <ele>355</ele>
        <time>2019-06-11T17:50:48+02:00</time>
      </trkpt>
      <trkpt lat="44.82911" lon="1.75918">
        <ele>353</ele>
        <time>2019-06-11T17:51:02+02:00</time>
      </trkpt>
      <trkpt lat="44.82896" lon="1.75895">
        <ele>352</ele>
        <time>2019-06-11T17:51:18+02:00</time>
      </trkpt>
      <trkpt lat="44.82882" lon="1.7587">
        <ele>351</ele>
        <time>2019-06-11T17:51:37+02:00</time>
      </trkpt>
      <trkpt lat="44.82868" lon="1.75844">
        <ele>351</ele>
        <time>2019-06-11T17:51:58+02:00</time>
      </trkpt>
      <trkpt lat="44.8285" lon="1.75822">
        <ele>350</ele>
        <time>2019-06-11T17:52:21+02:00</time>
      </trkpt>
      <trkpt lat="44.82833" lon="1.75799">
        <ele>348</ele>
        <time>2019-06-11T17:52:40+02:00</time>
      </trkpt>
      <trkpt lat="44.82814" lon="1.75781">
        <ele>349</ele>
        <time>2019-06-11T17:53:00+02:00</time>
      </trkpt>
      <trkpt lat="44.82795" lon="1.75762">
        <ele>348</ele>
        <time>2019-06-11T17:53:23+02:00</time>
      </trkpt>
      <trkpt lat="44.82774" lon="1.75747">
        <ele>348</ele>
        <time>2019-06-11T17:53:41+02:00</time>
      </trkpt>
      <trkpt lat="44.82754" lon="1.75732">
        <ele>348</ele>
        <time>2019-06-11T17:53:55+02:00</time>
      </trkpt>
      <trkpt lat="44.82734" lon="1.75714">
        <ele>348</ele>
        <time>2019-06-11T17:54:15+02:00</time>
      </trkpt>
      <trkpt lat="44.82713" lon="1.75701">
        <ele>348</ele>
        <time>2019-06-11T17:54:51+02:00</time>
      </trkpt>
      <trkpt lat="44.82692" lon="1.75687">
        <ele>347</ele>
        <time>2019-06-11T17:55:22+02:00</time>
      </trkpt>
      <trkpt lat="44.82672" lon="1.7567">
        <ele>346</ele>
        <time>2019-06-11T17:56:25+02:00</time>
      </trkpt>
      <trkpt lat="44.82653" lon="1.7565">
        <ele>344</ele>
        <time>2019-06-11T17:56:49+02:00</time>
      </trkpt>
      <trkpt lat="44.8263" lon="1.75638">
        <ele>343</ele>
        <time>2019-06-11T17:57:12+02:00</time>
      </trkpt>
      <trkpt lat="44.82616" lon="1.75612">
        <ele>342</ele>
        <time>2019-06-11T17:58:01+02:00</time>
      </trkpt>
      <trkpt lat="44.82605" lon="1.75582">
        <ele>342</ele>
        <time>2019-06-11T17:58:21+02:00</time>
      </trkpt>
      <trkpt lat="44.82587" lon="1.75562">
        <ele>344</ele>
        <time>2019-06-11T17:58:54+02:00</time>
      </trkpt>
      <trkpt lat="44.82564" lon="1.7556">
        <ele>344</ele>
        <time>2019-06-11T17:59:13+02:00</time>
      </trkpt>
      <trkpt lat="44.8258" lon="1.75536">
        <ele>346</ele>
        <time>2019-06-11T17:59:59+02:00</time>
      </trkpt>
      <trkpt lat="44.82603" lon="1.75538">
        <ele>348</ele>
        <time>2019-06-11T18:00:19+02:00</time>
      </trkpt>
      <trkpt lat="44.82626" lon="1.75534">
        <ele>350</ele>
        <time>2019-06-11T18:00:40+02:00</time>
      </trkpt>
      <trkpt lat="44.82649" lon="1.75528">
        <ele>351</ele>
        <time>2019-06-11T18:00:58+02:00</time>
      </trkpt>
      <trkpt lat="44.82672" lon="1.75519">
        <ele>353</ele>
        <time>2019-06-11T18:01:17+02:00</time>
      </trkpt>
      <trkpt lat="44.82695" lon="1.75517">
        <ele>354</ele>
        <time>2019-06-11T18:01:35+02:00</time>
      </trkpt>
      <trkpt lat="44.82718" lon="1.75516">
        <ele>356</ele>
        <time>2019-06-11T18:01:59+02:00</time>
      </trkpt>
      <trkpt lat="44.8274" lon="1.75526">
        <ele>357</ele>
        <time>2019-06-11T18:02:34+02:00</time>
      </trkpt>
      <trkpt lat="44.82762" lon="1.75534">
        <ele>359</ele>
        <time>2019-06-11T18:02:53+02:00</time>
      </trkpt>
      <trkpt lat="44.82784" lon="1.75544">
        <ele>361</ele>
        <time>2019-06-11T18:03:13+02:00</time>
      </trkpt>
      <trkpt lat="44.82806" lon="1.75553">
        <ele>363</ele>
        <time>2019-06-11T18:03:31+02:00</time>
      </trkpt>
      <trkpt lat="44.82829" lon="1.75562">
        <ele>366</ele>
        <time>2019-06-11T18:03:55+02:00</time>
      </trkpt>
      <trkpt lat="44.82852" lon="1.75569">
        <ele>368</ele>
        <time>2019-06-11T18:04:17+02:00</time>
      </trkpt>
      <trkpt lat="44.82875" lon="1.75573">
        <ele>370</ele>
        <time>2019-06-11T18:04:34+02:00</time>
      </trkpt>
      <trkpt lat="44.82897" lon="1.75581">
        <ele>372</ele>
        <time>2019-06-11T18:04:58+02:00</time>
      </trkpt>
      <trkpt lat="44.8292" lon="1.7558">
        <ele>374</ele>
        <time>2019-06-11T18:05:20+02:00</time>
      </trkpt>
      <trkpt lat="44.82943" lon="1.75581">
        <ele>376</ele>
        <time>2019-06-11T18:05:40+02:00</time>
      </trkpt>
      <trkpt lat="44.82966" lon="1.75584">
        <ele>377</ele>
        <time>2019-06-11T18:06:05+02:00</time>
      </trkpt>
      <trkpt lat="44.82989" lon="1.75588">
        <ele>378</ele>
        <time>2019-06-11T18:06:27+02:00</time>
      </trkpt>
      <trkpt lat="44.83012" lon="1.75588">
        <ele>380</ele>
        <time>2019-06-11T18:07:03+02:00</time>
      </trkpt>
      <trkpt lat="44.83034" lon="1.7559">
        <ele>381</ele>
        <time>2019-06-11T18:07:25+02:00</time>
      </trkpt>
      <trkpt lat="44.83057" lon="1.75592">
        <ele>383</ele>
        <time>2019-06-11T18:07:44+02:00</time>
      </trkpt>
      <trkpt lat="44.8308" lon="1.75589">
        <ele>384</ele>
        <time>2019-06-11T18:08:03+02:00</time>
      </trkpt>
      <trkpt lat="44.83103" lon="1.75591">
        <ele>386</ele>
        <time>2019-06-11T18:08:26+02:00</time>
      </trkpt>
      <trkpt lat="44.83125" lon="1.75588">
        <ele>388</ele>
        <time>2019-06-11T18:08:53+02:00</time>
      </trkpt>
      <trkpt lat="44.83147" lon="1.75596">
        <ele>389</ele>
        <time>2019-06-11T18:09:17+02:00</time>
      </trkpt>
    </trkseg>
  </trk>
</gpx>